sensor_id;sensor_type;location;lat;lon;timestamp;P1;durP1;ratioP1;P2;durP2;ratioP2
15958;SDS011;8078;47.822;9.402;2024-02-16T00:01:45;3.83;;;3.20;;
15958;SDS011;8078;47.822;9.402;2024-02-16T00:04:10;4.30;;;2.80;;
15958;SDS011;8078;47.822;9.402;2024-02-16T00:06:36;3.93;;;2.80;;
15958;SDS011;8078;47.822;9.402;2024-02-16T00:09:01;3.07;;;2.77;;
15958;SDS011;8078;47.822;9.402;2024-02-16T00:11:27;6.63;;;3.10;;
15958;SDS011;8078;47.822;9.402;2024-02-16T00:13:53;3.70;;;3.23;;
15958;SDS011;8078;47.822;9.402;2024-02-16T00:16:19;5.60;;;2.93;;
15958;SDS011;8078;47.822;9.402;2024-02-16T00:18:46;3.97;;;2.90;;
15958;SDS011;8078;47.822;9.402;2024-02-16T00:21:11;3.20;;;2.90;;
15958;SDS011;8078;47.822;9.402;2024-02-16T00:23:37;5.10;;;2.77;;
15958;SDS011;8078;47.822;9.402;2024-02-16T00:26:02;7.03;;;2.67;;
15958;SDS011;8078;47.822;9.402;2024-02-16T00:28:32;3.13;;;2.70;;
15958;SDS011;8078;47.822;9.402;2024-02-16T00:30:57;2.63;;;2.40;;
15958;SDS011;8078;47.822;9.402;2024-02-16T00:33:23;3.67;;;2.43;;
15958;SDS011;8078;47.822;9.402;2024-02-16T00:35:48;2.30;;;2.17;;
15958;SDS011;8078;47.822;9.402;2024-02-16T00:38:14;2.57;;;2.03;;
15958;SDS011;8078;47.822;9.402;2024-02-16T00:40:40;2.20;;;2.00;;
15958;SDS011;8078;47.822;9.402;2024-02-16T00:43:09;2.10;;;1.90;;
15958;SDS011;8078;47.822;9.402;2024-02-16T00:45:35;2.53;;;1.77;;
15958;SDS011;8078;47.822;9.402;2024-02-16T00:48:01;2.30;;;2.10;;
15958;SDS011;8078;47.822;9.402;2024-02-16T00:50:27;1.77;;;1.67;;
15958;SDS011;8078;47.822;9.402;2024-02-16T00:52:53;2.30;;;2.10;;
15958;SDS011;8078;47.822;9.402;2024-02-16T00:55:18;4.70;;;2.93;;
15958;SDS011;8078;47.822;9.402;2024-02-16T00:57:44;3.73;;;2.60;;
15958;SDS011;8078;47.822;9.402;2024-02-16T01:00:09;4.47;;;3.10;;
15958;SDS011;8078;47.822;9.402;2024-02-16T01:02:36;5.20;;;3.10;;
15958;SDS011;8078;47.822;9.402;2024-02-16T01:05:01;5.10;;;3.20;;
15958;SDS011;8078;47.822;9.402;2024-02-16T01:07:27;4.77;;;3.20;;
15958;SDS011;8078;47.822;9.402;2024-02-16T01:09:53;4.67;;;3.60;;
15958;SDS011;8078;47.822;9.402;2024-02-16T01:12:20;3.87;;;3.30;;
15958;SDS011;8078;47.822;9.402;2024-02-16T01:14:45;5.17;;;3.17;;
15958;SDS011;8078;47.822;9.402;2024-02-16T01:17:11;3.97;;;3.20;;
15958;SDS011;8078;47.822;9.402;2024-02-16T01:19:36;6.07;;;3.47;;
15958;SDS011;8078;47.822;9.402;2024-02-16T01:22:02;3.90;;;3.20;;
15958;SDS011;8078;47.822;9.402;2024-02-16T01:24:28;4.77;;;2.70;;
15958;SDS011;8078;47.822;9.402;2024-02-16T01:26:54;2.80;;;2.50;;
15958;SDS011;8078;47.822;9.402;2024-02-16T01:29:19;4.70;;;2.67;;
15958;SDS011;8078;47.822;9.402;2024-02-16T01:31:45;6.00;;;3.07;;
15958;SDS011;8078;47.822;9.402;2024-02-16T01:34:10;3.93;;;2.83;;
15958;SDS011;8078;47.822;9.402;2024-02-16T01:36:36;3.27;;;2.60;;
15958;SDS011;8078;47.822;9.402;2024-02-16T01:39:02;3.43;;;2.90;;
15958;SDS011;8078;47.822;9.402;2024-02-16T01:41:28;4.77;;;2.80;;
15958;SDS011;8078;47.822;9.402;2024-02-16T01:43:54;4.47;;;2.83;;
15958;SDS011;8078;47.822;9.402;2024-02-16T01:46:22;3.83;;;3.13;;
15958;SDS011;8078;47.822;9.402;2024-02-16T01:48:48;3.53;;;2.97;;
15958;SDS011;8078;47.822;9.402;2024-02-16T01:51:15;3.07;;;2.77;;
15958;SDS011;8078;47.822;9.402;2024-02-16T01:53:40;4.30;;;2.90;;
15958;SDS011;8078;47.822;9.402;2024-02-16T01:56:06;5.33;;;3.40;;
15958;SDS011;8078;47.822;9.402;2024-02-16T01:58:33;7.50;;;4.10;;
15958;SDS011;8078;47.822;9.402;2024-02-16T02:00:58;3.57;;;3.23;;
15958;SDS011;8078;47.822;9.402;2024-02-16T02:03:24;4.93;;;3.90;;
15958;SDS011;8078;47.822;9.402;2024-02-16T02:05:50;5.30;;;3.70;;
15958;SDS011;8078;47.822;9.402;2024-02-16T02:08:16;6.07;;;3.83;;
15958;SDS011;8078;47.822;9.402;2024-02-16T02:10:42;4.90;;;4.10;;
15958;SDS011;8078;47.822;9.402;2024-02-16T02:13:07;5.60;;;4.27;;
15958;SDS011;8078;47.822;9.402;2024-02-16T02:15:33;5.33;;;4.23;;
15958;SDS011;8078;47.822;9.402;2024-02-16T02:17:59;5.50;;;4.47;;
15958;SDS011;8078;47.822;9.402;2024-02-16T02:20:25;8.17;;;4.33;;
15958;SDS011;8078;47.822;9.402;2024-02-16T02:22:51;7.37;;;5.13;;
15958;SDS011;8078;47.822;9.402;2024-02-16T02:25:16;7.87;;;5.80;;
15958;SDS011;8078;47.822;9.402;2024-02-16T02:27:42;7.30;;;6.00;;
15958;SDS011;8078;47.822;9.402;2024-02-16T02:30:07;8.13;;;5.67;;
15958;SDS011;8078;47.822;9.402;2024-02-16T02:32:33;9.27;;;5.50;;
15958;SDS011;8078;47.822;9.402;2024-02-16T02:34:59;6.40;;;5.27;;
15958;SDS011;8078;47.822;9.402;2024-02-16T02:37:26;8.57;;;5.43;;
15958;SDS011;8078;47.822;9.402;2024-02-16T02:39:51;7.47;;;5.27;;
15958;SDS011;8078;47.822;9.402;2024-02-16T02:42:17;9.47;;;5.73;;
15958;SDS011;8078;47.822;9.402;2024-02-16T02:44:42;10.27;;;5.70;;
15958;SDS011;8078;47.822;9.402;2024-02-16T02:47:14;8.77;;;5.83;;
15958;SDS011;8078;47.822;9.402;2024-02-16T02:49:43;9.10;;;5.57;;
15958;SDS011;8078;47.822;9.402;2024-02-16T02:52:09;8.07;;;5.67;;
15958;SDS011;8078;47.822;9.402;2024-02-16T02:54:35;9.63;;;6.10;;
15958;SDS011;8078;47.822;9.402;2024-02-16T02:57:01;7.67;;;5.87;;
15958;SDS011;8078;47.822;9.402;2024-02-16T02:59:27;6.87;;;6.03;;
15958;SDS011;8078;47.822;9.402;2024-02-16T03:01:53;8.00;;;6.17;;
15958;SDS011;8078;47.822;9.402;2024-02-16T03:04:18;9.97;;;6.20;;
15958;SDS011;8078;47.822;9.402;2024-02-16T03:06:44;8.83;;;6.13;;
15958;SDS011;8078;47.822;9.402;2024-02-16T03:09:10;9.43;;;6.87;;
15958;SDS011;8078;47.822;9.402;2024-02-16T03:11:37;7.67;;;6.60;;
15958;SDS011;8078;47.822;9.402;2024-02-16T03:14:03;12.37;;;7.07;;
15958;SDS011;8078;47.822;9.402;2024-02-16T03:16:30;11.97;;;7.70;;
15958;SDS011;8078;47.822;9.402;2024-02-16T03:18:56;9.80;;;6.83;;
15958;SDS011;8078;47.822;9.402;2024-02-16T03:21:22;11.63;;;7.90;;
15958;SDS011;8078;47.822;9.402;2024-02-16T03:23:48;10.73;;;8.20;;
15958;SDS011;8078;47.822;9.402;2024-02-16T03:26:17;11.30;;;8.50;;
15958;SDS011;8078;47.822;9.402;2024-02-16T03:28:44;10.23;;;6.93;;
15958;SDS011;8078;47.822;9.402;2024-02-16T03:31:20;12.10;;;6.63;;
15958;SDS011;8078;47.822;9.402;2024-02-16T03:33:47;9.90;;;6.90;;
15958;SDS011;8078;47.822;9.402;2024-02-16T03:36:13;12.17;;;7.90;;
15958;SDS011;8078;47.822;9.402;2024-02-16T03:38:43;7.90;;;6.00;;
15958;SDS011;8078;47.822;9.402;2024-02-16T03:41:20;9.83;;;6.40;;
15958;SDS011;8078;47.822;9.402;2024-02-16T03:43:48;8.27;;;5.93;;
15958;SDS011;8078;47.822;9.402;2024-02-16T03:46:13;8.17;;;6.33;;
15958;SDS011;8078;47.822;9.402;2024-02-16T03:48:39;9.43;;;5.40;;
15958;SDS011;8078;47.822;9.402;2024-02-16T03:51:05;9.00;;;4.97;;
15958;SDS011;8078;47.822;9.402;2024-02-16T03:53:31;9.90;;;4.87;;
15958;SDS011;8078;47.822;9.402;2024-02-16T03:55:57;5.87;;;4.70;;
15958;SDS011;8078;47.822;9.402;2024-02-16T03:58:23;6.53;;;4.90;;
15958;SDS011;8078;47.822;9.402;2024-02-16T04:00:49;7.43;;;4.83;;
15958;SDS011;8078;47.822;9.402;2024-02-16T04:03:15;7.20;;;4.77;;
15958;SDS011;8078;47.822;9.402;2024-02-16T04:05:41;7.83;;;5.13;;
15958;SDS011;8078;47.822;9.402;2024-02-16T04:08:07;7.13;;;5.87;;
15958;SDS011;8078;47.822;9.402;2024-02-16T04:10:35;9.77;;;6.17;;
15958;SDS011;8078;47.822;9.402;2024-02-16T04:13:01;9.67;;;6.73;;
15958;SDS011;8078;47.822;9.402;2024-02-16T04:15:27;7.80;;;5.80;;
15958;SDS011;8078;47.822;9.402;2024-02-16T04:17:52;9.90;;;7.17;;
15958;SDS011;8078;47.822;9.402;2024-02-16T04:20:18;8.43;;;6.10;;
15958;SDS011;8078;47.822;9.402;2024-02-16T04:22:44;7.33;;;5.47;;
15958;SDS011;8078;47.822;9.402;2024-02-16T04:25:10;7.67;;;5.77;;
15958;SDS011;8078;47.822;9.402;2024-02-16T04:27:36;11.60;;;5.50;;
15958;SDS011;8078;47.822;9.402;2024-02-16T04:30:02;7.33;;;5.90;;
15958;SDS011;8078;47.822;9.402;2024-02-16T04:32:28;7.50;;;5.93;;
15958;SDS011;8078;47.822;9.402;2024-02-16T04:34:54;8.07;;;5.80;;
15958;SDS011;8078;47.822;9.402;2024-02-16T04:37:22;8.67;;;6.13;;
15958;SDS011;8078;47.822;9.402;2024-02-16T04:39:48;8.37;;;6.83;;
15958;SDS011;8078;47.822;9.402;2024-02-16T04:42:14;8.17;;;6.67;;
15958;SDS011;8078;47.822;9.402;2024-02-16T04:44:40;8.33;;;6.77;;
15958;SDS011;8078;47.822;9.402;2024-02-16T04:47:06;11.73;;;7.80;;
15958;SDS011;8078;47.822;9.402;2024-02-16T04:49:32;15.13;;;8.73;;
15958;SDS011;8078;47.822;9.402;2024-02-16T04:51:57;13.17;;;8.60;;
15958;SDS011;8078;47.822;9.402;2024-02-16T04:54:23;14.27;;;9.30;;
15958;SDS011;8078;47.822;9.402;2024-02-16T04:56:49;16.63;;;9.87;;
15958;SDS011;8078;47.822;9.402;2024-02-16T04:59:15;13.37;;;10.03;;
15958;SDS011;8078;47.822;9.402;2024-02-16T05:01:42;13.20;;;9.67;;
15958;SDS011;8078;47.822;9.402;2024-02-16T05:04:09;13.03;;;9.80;;
15958;SDS011;8078;47.822;9.402;2024-02-16T05:06:39;11.07;;;9.33;;
15958;SDS011;8078;47.822;9.402;2024-02-16T05:09:07;14.90;;;9.70;;
15958;SDS011;8078;47.822;9.402;2024-02-16T05:11:33;14.70;;;9.83;;
15958;SDS011;8078;47.822;9.402;2024-02-16T05:13:59;14.57;;;9.60;;
15958;SDS011;8078;47.822;9.402;2024-02-16T05:16:25;12.03;;;9.37;;
15958;SDS011;8078;47.822;9.402;2024-02-16T05:18:51;11.23;;;9.30;;
15958;SDS011;8078;47.822;9.402;2024-02-16T05:21:17;12.50;;;10.10;;
15958;SDS011;8078;47.822;9.402;2024-02-16T05:23:43;12.10;;;9.43;;
15958;SDS011;8078;47.822;9.402;2024-02-16T05:26:08;12.23;;;8.63;;
15958;SDS011;8078;47.822;9.402;2024-02-16T05:28:34;11.87;;;8.50;;
15958;SDS011;8078;47.822;9.402;2024-02-16T05:31:18;12.97;;;9.10;;
15958;SDS011;8078;47.822;9.402;2024-02-16T05:33:44;9.03;;;7.50;;
15958;SDS011;8078;47.822;9.402;2024-02-16T05:36:11;13.27;;;7.53;;
15958;SDS011;8078;47.822;9.402;2024-02-16T05:38:37;9.13;;;7.13;;
15958;SDS011;8078;47.822;9.402;2024-02-16T05:41:09;11.53;;;7.30;;
15958;SDS011;8078;47.822;9.402;2024-02-16T05:43:36;10.33;;;7.17;;
15958;SDS011;8078;47.822;9.402;2024-02-16T05:46:03;9.30;;;7.50;;
15958;SDS011;8078;47.822;9.402;2024-02-16T05:48:31;10.77;;;6.80;;
15958;SDS011;8078;47.822;9.402;2024-02-16T05:51:02;9.07;;;6.93;;
15958;SDS011;8078;47.822;9.402;2024-02-16T05:53:30;8.73;;;6.80;;
15958;SDS011;8078;47.822;9.402;2024-02-16T05:55:56;8.70;;;6.63;;
15958;SDS011;8078;47.822;9.402;2024-02-16T05:58:21;11.50;;;7.80;;
15958;SDS011;8078;47.822;9.402;2024-02-16T06:00:48;10.27;;;7.50;;
15958;SDS011;8078;47.822;9.402;2024-02-16T06:03:14;9.67;;;6.97;;
15958;SDS011;8078;47.822;9.402;2024-02-16T06:05:39;12.27;;;7.63;;
15958;SDS011;8078;47.822;9.402;2024-02-16T06:08:06;10.87;;;7.53;;
15958;SDS011;8078;47.822;9.402;2024-02-16T06:10:32;11.90;;;7.90;;
15958;SDS011;8078;47.822;9.402;2024-02-16T06:12:58;10.20;;;7.87;;
15958;SDS011;8078;47.822;9.402;2024-02-16T06:15:24;12.23;;;7.73;;
15958;SDS011;8078;47.822;9.402;2024-02-16T06:17:50;11.17;;;8.30;;
15958;SDS011;8078;47.822;9.402;2024-02-16T06:20:16;12.83;;;8.23;;
15958;SDS011;8078;47.822;9.402;2024-02-16T06:22:42;13.40;;;7.93;;
15958;SDS011;8078;47.822;9.402;2024-02-16T06:25:08;10.90;;;7.27;;
15958;SDS011;8078;47.822;9.402;2024-02-16T06:27:33;13.03;;;7.37;;
15958;SDS011;8078;47.822;9.402;2024-02-16T06:29:59;10.77;;;7.13;;
15958;SDS011;8078;47.822;9.402;2024-02-16T06:32:25;10.50;;;7.77;;
15958;SDS011;8078;47.822;9.402;2024-02-16T06:34:51;11.17;;;7.47;;
15958;SDS011;8078;47.822;9.402;2024-02-16T06:37:18;9.63;;;6.97;;
15958;SDS011;8078;47.822;9.402;2024-02-16T06:39:44;9.57;;;6.97;;
15958;SDS011;8078;47.822;9.402;2024-02-16T06:42:10;10.43;;;6.90;;
15958;SDS011;8078;47.822;9.402;2024-02-16T06:44:37;12.40;;;7.43;;
15958;SDS011;8078;47.822;9.402;2024-02-16T06:47:04;9.17;;;7.03;;
15958;SDS011;8078;47.822;9.402;2024-02-16T06:49:30;8.77;;;6.37;;
15958;SDS011;8078;47.822;9.402;2024-02-16T06:51:56;10.73;;;6.23;;
15958;SDS011;8078;47.822;9.402;2024-02-16T06:54:21;12.27;;;6.20;;
15958;SDS011;8078;47.822;9.402;2024-02-16T06:56:47;11.00;;;6.30;;
15958;SDS011;8078;47.822;9.402;2024-02-16T06:59:13;6.67;;;5.40;;
15958;SDS011;8078;47.822;9.402;2024-02-16T07:01:38;8.37;;;6.07;;
15958;SDS011;8078;47.822;9.402;2024-02-16T07:04:04;8.17;;;6.10;;
15958;SDS011;8078;47.822;9.402;2024-02-16T07:06:30;7.40;;;5.23;;
15958;SDS011;8078;47.822;9.402;2024-02-16T07:08:56;7.67;;;5.17;;
15958;SDS011;8078;47.822;9.402;2024-02-16T07:11:21;8.20;;;5.30;;
15958;SDS011;8078;47.822;9.402;2024-02-16T07:13:47;6.47;;;5.07;;
15958;SDS011;8078;47.822;9.402;2024-02-16T07:16:14;7.93;;;5.20;;
15958;SDS011;8078;47.822;9.402;2024-02-16T07:18:40;6.83;;;5.30;;
15958;SDS011;8078;47.822;9.402;2024-02-16T07:21:07;8.23;;;5.90;;
15958;SDS011;8078;47.822;9.402;2024-02-16T07:23:34;8.20;;;5.43;;
15958;SDS011;8078;47.822;9.402;2024-02-16T07:25:59;8.33;;;5.90;;
15958;SDS011;8078;47.822;9.402;2024-02-16T07:28:27;7.43;;;5.27;;
15958;SDS011;8078;47.822;9.402;2024-02-16T07:30:52;9.27;;;5.77;;
15958;SDS011;8078;47.822;9.402;2024-02-16T07:33:18;7.37;;;5.53;;
15958;SDS011;8078;47.822;9.402;2024-02-16T07:35:44;8.13;;;5.50;;
15958;SDS011;8078;47.822;9.402;2024-02-16T07:38:09;8.13;;;5.13;;
15958;SDS011;8078;47.822;9.402;2024-02-16T07:40:35;8.60;;;5.03;;
15958;SDS011;8078;47.822;9.402;2024-02-16T07:43:01;7.33;;;5.37;;
15958;SDS011;8078;47.822;9.402;2024-02-16T07:45:28;6.63;;;5.00;;
15958;SDS011;8078;47.822;9.402;2024-02-16T07:47:53;6.27;;;5.30;;
15958;SDS011;8078;47.822;9.402;2024-02-16T07:50:20;7.10;;;4.97;;
15958;SDS011;8078;47.822;9.402;2024-02-16T07:52:46;8.17;;;5.10;;
15958;SDS011;8078;47.822;9.402;2024-02-16T07:55:13;6.57;;;4.93;;
15958;SDS011;8078;47.822;9.402;2024-02-16T07:57:39;7.20;;;5.63;;
15958;SDS011;8078;47.822;9.402;2024-02-16T08:00:05;11.00;;;5.17;;
15958;SDS011;8078;47.822;9.402;2024-02-16T08:02:31;7.00;;;4.90;;
15958;SDS011;8078;47.822;9.402;2024-02-16T08:04:58;7.47;;;4.87;;
15958;SDS011;8078;47.822;9.402;2024-02-16T08:07:23;5.93;;;5.00;;
15958;SDS011;8078;47.822;9.402;2024-02-16T08:09:49;9.23;;;5.40;;
15958;SDS011;8078;47.822;9.402;2024-02-16T08:12:15;9.67;;;4.97;;
15958;SDS011;8078;47.822;9.402;2024-02-16T08:14:41;7.80;;;4.60;;
15958;SDS011;8078;47.822;9.402;2024-02-16T08:17:07;6.50;;;4.97;;
15958;SDS011;8078;47.822;9.402;2024-02-16T08:19:35;6.73;;;5.07;;
15958;SDS011;8078;47.822;9.402;2024-02-16T08:22:08;6.80;;;4.50;;
15958;SDS011;8078;47.822;9.402;2024-02-16T08:24:34;7.07;;;5.10;;
15958;SDS011;8078;47.822;9.402;2024-02-16T08:27:00;6.07;;;4.60;;
15958;SDS011;8078;47.822;9.402;2024-02-16T08:29:26;5.77;;;4.80;;
15958;SDS011;8078;47.822;9.402;2024-02-16T08:31:52;9.53;;;4.80;;
15958;SDS011;8078;47.822;9.402;2024-02-16T08:34:17;6.10;;;4.63;;
15958;SDS011;8078;47.822;9.402;2024-02-16T08:36:44;8.50;;;4.97;;
15958;SDS011;8078;47.822;9.402;2024-02-16T08:39:09;7.43;;;4.47;;
15958;SDS011;8078;47.822;9.402;2024-02-16T08:41:37;8.17;;;4.90;;
15958;SDS011;8078;47.822;9.402;2024-02-16T08:44:02;4.83;;;4.33;;
15958;SDS011;8078;47.822;9.402;2024-02-16T08:46:29;6.93;;;5.00;;
15958;SDS011;8078;47.822;9.402;2024-02-16T08:48:54;5.73;;;4.53;;
15958;SDS011;8078;47.822;9.402;2024-02-16T08:51:20;5.40;;;4.30;;
15958;SDS011;8078;47.822;9.402;2024-02-16T08:53:46;5.10;;;4.47;;
15958;SDS011;8078;47.822;9.402;2024-02-16T08:56:12;8.17;;;4.70;;
15958;SDS011;8078;47.822;9.402;2024-02-16T08:58:38;9.10;;;4.90;;
15958;SDS011;8078;47.822;9.402;2024-02-16T09:01:04;6.00;;;4.73;;
15958;SDS011;8078;47.822;9.402;2024-02-16T09:03:30;7.83;;;4.87;;
15958;SDS011;8078;47.822;9.402;2024-02-16T09:06:01;8.17;;;5.10;;
15958;SDS011;8078;47.822;9.402;2024-02-16T09:08:27;7.60;;;5.13;;
15958;SDS011;8078;47.822;9.402;2024-02-16T09:10:57;8.00;;;4.90;;
15958;SDS011;8078;47.822;9.402;2024-02-16T09:13:30;5.67;;;4.07;;
15958;SDS011;8078;47.822;9.402;2024-02-16T09:16:01;6.87;;;4.47;;
15958;SDS011;8078;47.822;9.402;2024-02-16T09:18:28;7.50;;;4.47;;
15958;SDS011;8078;47.822;9.402;2024-02-16T09:20:54;5.13;;;3.80;;
15958;SDS011;8078;47.822;9.402;2024-02-16T09:23:20;12.10;;;4.70;;
15958;SDS011;8078;47.822;9.402;2024-02-16T09:25:45;6.80;;;4.20;;
15958;SDS011;8078;47.822;9.402;2024-02-16T09:28:11;4.70;;;3.90;;
15958;SDS011;8078;47.822;9.402;2024-02-16T09:30:37;6.53;;;4.40;;
15958;SDS011;8078;47.822;9.402;2024-02-16T09:33:03;5.63;;;4.27;;
15958;SDS011;8078;47.822;9.402;2024-02-16T09:35:29;7.77;;;4.63;;
15958;SDS011;8078;47.822;9.402;2024-02-16T09:37:54;7.37;;;4.60;;
15958;SDS011;8078;47.822;9.402;2024-02-16T09:40:20;6.47;;;4.57;;
15958;SDS011;8078;47.822;9.402;2024-02-16T09:42:50;6.93;;;4.50;;
15958;SDS011;8078;47.822;9.402;2024-02-16T09:45:16;6.70;;;3.87;;
15958;SDS011;8078;47.822;9.402;2024-02-16T09:47:45;6.83;;;4.20;;
15958;SDS011;8078;47.822;9.402;2024-02-16T09:50:14;5.53;;;4.50;;
15958;SDS011;8078;47.822;9.402;2024-02-16T09:52:40;5.60;;;4.20;;
15958;SDS011;8078;47.822;9.402;2024-02-16T09:55:07;5.13;;;4.10;;
15958;SDS011;8078;47.822;9.402;2024-02-16T09:57:36;7.47;;;4.27;;
15958;SDS011;8078;47.822;9.402;2024-02-16T10:00:02;4.87;;;3.83;;
15958;SDS011;8078;47.822;9.402;2024-02-16T10:02:38;5.57;;;3.73;;
15958;SDS011;8078;47.822;9.402;2024-02-16T10:07:37;5.63;;;4.30;;
15958;SDS011;8078;47.822;9.402;2024-02-16T10:10:02;5.80;;;4.03;;
15958;SDS011;8078;47.822;9.402;2024-02-16T10:12:29;5.20;;;3.90;;
15958;SDS011;8078;47.822;9.402;2024-02-16T10:14:55;4.95;;;3.95;;
15958;SDS011;8078;47.822;9.402;2024-02-16T10:17:21;4.23;;;3.50;;
15958;SDS011;8078;47.822;9.402;2024-02-16T10:19:55;6.63;;;3.97;;
15958;SDS011;8078;47.822;9.402;2024-02-16T10:22:21;5.20;;;3.90;;
15958;SDS011;8078;47.822;9.402;2024-02-16T10:24:48;8.57;;;4.27;;
15958;SDS011;8078;47.822;9.402;2024-02-16T10:27:15;7.53;;;4.43;;
15958;SDS011;8078;47.822;9.402;2024-02-16T10:29:43;8.00;;;4.40;;
15958;SDS011;8078;47.822;9.402;2024-02-16T10:32:10;5.13;;;4.20;;
15958;SDS011;8078;47.822;9.402;2024-02-16T10:34:37;5.97;;;4.07;;
15958;SDS011;8078;47.822;9.402;2024-02-16T10:37:05;5.32;;;4.15;;
15958;SDS011;8078;47.822;9.402;2024-02-16T10:39:32;7.10;;;4.25;;
15958;SDS011;8078;47.822;9.402;2024-02-16T10:41:58;5.23;;;4.33;;
15958;SDS011;8078;47.822;9.402;2024-02-16T10:44:27;6.45;;;4.40;;
15958;SDS011;8078;47.822;9.402;2024-02-16T10:46:53;5.90;;;4.68;;
15958;SDS011;8078;47.822;9.402;2024-02-16T10:49:21;6.50;;;4.75;;
15958;SDS011;8078;47.822;9.402;2024-02-16T10:51:49;9.23;;;4.17;;
15958;SDS011;8078;47.822;9.402;2024-02-16T10:54:22;6.37;;;4.07;;
15958;SDS011;8078;47.822;9.402;2024-02-16T10:56:52;6.20;;;4.57;;
15958;SDS011;8078;47.822;9.402;2024-02-16T10:59:19;5.05;;;4.43;;
15958;SDS011;8078;47.822;9.402;2024-02-16T11:01:44;6.38;;;5.15;;
15958;SDS011;8078;47.822;9.402;2024-02-16T11:04:17;5.25;;;4.60;;
15958;SDS011;8078;47.822;9.402;2024-02-16T11:06:51;6.13;;;4.70;;
15958;SDS011;8078;47.822;9.402;2024-02-16T11:09:34;7.63;;;5.50;;
15958;SDS011;8078;47.822;9.402;2024-02-16T11:12:04;5.07;;;4.57;;
15958;SDS011;8078;47.822;9.402;2024-02-16T11:14:34;6.23;;;4.90;;
15958;SDS011;8078;47.822;9.402;2024-02-16T11:17:01;6.07;;;4.57;;
15958;SDS011;8078;47.822;9.402;2024-02-16T11:19:27;8.50;;;4.73;;
15958;SDS011;8078;47.822;9.402;2024-02-16T11:21:58;6.83;;;5.03;;
15958;SDS011;8078;47.822;9.402;2024-02-16T11:24:29;7.60;;;5.20;;
15958;SDS011;8078;47.822;9.402;2024-02-16T11:26:56;7.57;;;5.10;;
15958;SDS011;8078;47.822;9.402;2024-02-16T11:29:22;5.93;;;5.10;;
15958;SDS011;8078;47.822;9.402;2024-02-16T11:31:48;8.37;;;5.40;;
15958;SDS011;8078;47.822;9.402;2024-02-16T11:34:25;7.53;;;6.00;;
15958;SDS011;8078;47.822;9.402;2024-02-16T11:36:55;10.50;;;5.73;;
15958;SDS011;8078;47.822;9.402;2024-02-16T11:39:21;7.73;;;5.60;;
15958;SDS011;8078;47.822;9.402;2024-02-16T11:41:47;12.80;;;5.83;;
15958;SDS011;8078;47.822;9.402;2024-02-16T11:44:13;7.83;;;5.10;;
15958;SDS011;8078;47.822;9.402;2024-02-16T11:46:41;6.37;;;4.73;;
15958;SDS011;8078;47.822;9.402;2024-02-16T11:49:07;6.77;;;5.03;;
15958;SDS011;8078;47.822;9.402;2024-02-16T11:51:34;7.07;;;4.63;;
15958;SDS011;8078;47.822;9.402;2024-02-16T11:54:00;5.87;;;5.07;;
15958;SDS011;8078;47.822;9.402;2024-02-16T11:56:25;7.97;;;5.03;;
15958;SDS011;8078;47.822;9.402;2024-02-16T11:58:52;5.57;;;4.77;;
15958;SDS011;8078;47.822;9.402;2024-02-16T12:01:18;10.17;;;4.77;;
15958;SDS011;8078;47.822;9.402;2024-02-16T12:03:43;8.93;;;5.00;;
15958;SDS011;8078;47.822;9.402;2024-02-16T12:06:09;9.40;;;4.72;;
15958;SDS011;8078;47.822;9.402;2024-02-16T12:08:45;6.40;;;4.30;;
15958;SDS011;8078;47.822;9.402;2024-02-16T12:11:10;11.18;;;4.57;;
15958;SDS011;8078;47.822;9.402;2024-02-16T12:13:36;5.50;;;4.50;;
15958;SDS011;8078;47.822;9.402;2024-02-16T12:16:02;8.85;;;4.82;;
15958;SDS011;8078;47.822;9.402;2024-02-16T12:18:28;7.63;;;4.40;;
15958;SDS011;8078;47.822;9.402;2024-02-16T12:20:56;5.03;;;4.45;;
15958;SDS011;8078;47.822;9.402;2024-02-16T12:23:22;9.23;;;4.33;;
15958;SDS011;8078;47.822;9.402;2024-02-16T12:25:47;6.20;;;4.60;;
15958;SDS011;8078;47.822;9.402;2024-02-16T12:28:13;6.00;;;4.07;;
15958;SDS011;8078;47.822;9.402;2024-02-16T12:30:38;6.60;;;4.50;;
15958;SDS011;8078;47.822;9.402;2024-02-16T12:33:05;6.75;;;4.65;;
15958;SDS011;8078;47.822;9.402;2024-02-16T12:35:30;8.57;;;4.93;;
15958;SDS011;8078;47.822;9.402;2024-02-16T12:37:56;6.18;;;4.47;;
15958;SDS011;8078;47.822;9.402;2024-02-16T12:40:22;6.80;;;4.38;;
15958;SDS011;8078;47.822;9.402;2024-02-16T12:42:47;7.15;;;5.22;;
15958;SDS011;8078;47.822;9.402;2024-02-16T12:45:13;7.35;;;4.15;;
15958;SDS011;8078;47.822;9.402;2024-02-16T12:47:41;8.65;;;4.40;;
15958;SDS011;8078;47.822;9.402;2024-02-16T12:50:07;9.60;;;4.53;;
15958;SDS011;8078;47.822;9.402;2024-02-16T12:52:32;5.55;;;3.92;;
15958;SDS011;8078;47.822;9.402;2024-02-16T12:55:00;7.40;;;4.18;;
15958;SDS011;8078;47.822;9.402;2024-02-16T12:57:26;7.90;;;4.43;;
15958;SDS011;8078;47.822;9.402;2024-02-16T12:59:53;8.20;;;4.20;;
15958;SDS011;8078;47.822;9.402;2024-02-16T13:02:19;7.95;;;5.00;;
15958;SDS011;8078;47.822;9.402;2024-02-16T13:04:44;5.70;;;4.45;;
15958;SDS011;8078;47.822;9.402;2024-02-16T13:07:10;7.72;;;5.07;;
15958;SDS011;8078;47.822;9.402;2024-02-16T13:09:36;8.45;;;4.55;;
15958;SDS011;8078;47.822;9.402;2024-02-16T13:12:02;5.40;;;4.47;;
15958;SDS011;8078;47.822;9.402;2024-02-16T13:14:28;7.17;;;4.70;;
15958;SDS011;8078;47.822;9.402;2024-02-16T13:16:53;8.13;;;4.78;;
15958;SDS011;8078;47.822;9.402;2024-02-16T13:19:19;7.17;;;4.80;;
15958;SDS011;8078;47.822;9.402;2024-02-16T13:21:44;7.65;;;5.30;;
15958;SDS011;8078;47.822;9.402;2024-02-16T13:24:10;6.35;;;4.93;;
15958;SDS011;8078;47.822;9.402;2024-02-16T13:26:35;12.17;;;5.53;;
15958;SDS011;8078;47.822;9.402;2024-02-16T13:29:01;8.93;;;5.27;;
15958;SDS011;8078;47.822;9.402;2024-02-16T13:31:27;8.60;;;5.30;;
15958;SDS011;8078;47.822;9.402;2024-02-16T13:33:54;8.23;;;5.40;;
15958;SDS011;8078;47.822;9.402;2024-02-16T13:36:20;10.47;;;5.13;;
15958;SDS011;8078;47.822;9.402;2024-02-16T13:38:45;9.53;;;5.60;;
15958;SDS011;8078;47.822;9.402;2024-02-16T13:41:11;9.83;;;5.30;;
15958;SDS011;8078;47.822;9.402;2024-02-16T13:43:36;7.57;;;5.27;;
15958;SDS011;8078;47.822;9.402;2024-02-16T13:46:02;9.60;;;5.23;;
15958;SDS011;8078;47.822;9.402;2024-02-16T13:48:28;9.13;;;4.80;;
15958;SDS011;8078;47.822;9.402;2024-02-16T13:50:55;5.37;;;4.17;;
15958;SDS011;8078;47.822;9.402;2024-02-16T13:53:20;7.50;;;4.80;;
15958;SDS011;8078;47.822;9.402;2024-02-16T13:55:48;6.80;;;4.33;;
15958;SDS011;8078;47.822;9.402;2024-02-16T13:58:14;8.77;;;4.67;;
15958;SDS011;8078;47.822;9.402;2024-02-16T14:00:39;8.33;;;4.53;;
15958;SDS011;8078;47.822;9.402;2024-02-16T14:03:09;9.83;;;4.57;;
15958;SDS011;8078;47.822;9.402;2024-02-16T14:05:39;6.10;;;4.72;;
15958;SDS011;8078;47.822;9.402;2024-02-16T14:08:06;6.60;;;4.28;;
15958;SDS011;8078;47.822;9.402;2024-02-16T14:10:36;8.13;;;3.90;;
15958;SDS011;8078;47.822;9.402;2024-02-16T14:13:01;7.63;;;4.27;;
15958;SDS011;8078;47.822;9.402;2024-02-16T14:15:27;7.70;;;4.03;;
15958;SDS011;8078;47.822;9.402;2024-02-16T14:17:53;5.47;;;4.00;;
15958;SDS011;8078;47.822;9.402;2024-02-16T14:20:18;6.07;;;4.13;;
15958;SDS011;8078;47.822;9.402;2024-02-16T14:22:46;8.40;;;4.30;;
15958;SDS011;8078;47.822;9.402;2024-02-16T14:25:12;5.35;;;4.55;;
15958;SDS011;8078;47.822;9.402;2024-02-16T14:27:38;7.20;;;3.90;;
15958;SDS011;8078;47.822;9.402;2024-02-16T14:30:05;10.83;;;4.40;;
15958;SDS011;8078;47.822;9.402;2024-02-16T14:32:31;6.57;;;4.13;;
15958;SDS011;8078;47.822;9.402;2024-02-16T14:34:56;7.13;;;3.73;;
15958;SDS011;8078;47.822;9.402;2024-02-16T14:37:22;6.67;;;3.97;;
15958;SDS011;8078;47.822;9.402;2024-02-16T14:39:47;7.03;;;4.20;;
15958;SDS011;8078;47.822;9.402;2024-02-16T14:42:13;8.27;;;4.50;;
15958;SDS011;8078;47.822;9.402;2024-02-16T14:44:39;5.77;;;4.17;;
15958;SDS011;8078;47.822;9.402;2024-02-16T14:47:04;8.73;;;4.20;;
15958;SDS011;8078;47.822;9.402;2024-02-16T14:49:30;5.97;;;4.10;;
15958;SDS011;8078;47.822;9.402;2024-02-16T14:51:56;6.87;;;3.90;;
15958;SDS011;8078;47.822;9.402;2024-02-16T14:54:22;5.90;;;3.90;;
15958;SDS011;8078;47.822;9.402;2024-02-16T14:56:51;8.47;;;4.43;;